sensor_id;sensor_type;location;lat;lon;timestamp;pressure;altitude;pressure_sealevel;temperature;humidity
17309;BME280;8772;42.804;23.426;2023-11-21T00:00:11;74462.06;;;-140.58;100.00
17309;BME280;8772;42.804;23.426;2023-11-21T00:02:38;74447.72;;;-140.58;100.00
17309;BME280;8772;42.804;23.426;2023-11-21T00:05:06;74449.78;;;-140.58;100.00
17309;BME280;8772;42.804;23.426;2023-11-21T00:07:36;74441.56;;;-140.58;100.00
17309;BME280;8772;42.804;23.426;2023-11-21T00:10:03;74445.66;;;-140.58;100.00
17309;BME280;8772;42.804;23.426;2023-11-21T00:12:31;74427.19;;;-140.58;100.00
17309;BME280;8772;42.804;23.426;2023-11-21T00:14:58;74425.16;;;-140.58;100.00
17309;BME280;8772;42.804;23.426;2023-11-21T00:17:25;74429.25;;;-140.58;99.80
17309;BME280;8772;42.804;23.426;2023-11-21T00:19:52;74425.16;;;-140.58;98.00
17309;BME280;8772;42.804;23.426;2023-11-21T00:22:19;74431.31;;;-140.58;96.92
17309;BME280;8772;42.804;23.426;2023-11-21T00:24:47;74433.34;;;-140.58;96.46
17309;BME280;8772;42.804;23.426;2023-11-21T00:27:14;74433.34;;;-140.58;95.95
17309;BME280;8772;42.804;23.426;2023-11-21T00:29:41;74433.34;;;-140.58;95.11
17309;BME280;8772;42.804;23.426;2023-11-21T00:32:08;74437.47;;;-140.58;93.89
17309;BME280;8772;42.804;23.426;2023-11-21T00:34:35;74464.13;;;-140.58;93.50
17309;BME280;8772;42.804;23.426;2023-11-21T00:37:02;74457.97;;;-140.58;94.13
17309;BME280;8772;42.804;23.426;2023-11-21T00:39:29;74451.81;;;-140.58;94.13
17309;BME280;8772;42.804;23.426;2023-11-21T00:41:57;74453.88;;;-140.58;94.67
17309;BME280;8772;42.804;23.426;2023-11-21T00:44:24;74449.78;;;-140.58;95.07
17309;BME280;8772;42.804;23.426;2023-11-21T00:46:51;74449.78;;;-140.58;94.95
17309;BME280;8772;42.804;23.426;2023-11-21T00:49:18;74453.88;;;-140.58;94.78
17309;BME280;8772;42.804;23.426;2023-11-21T00:51:46;74453.88;;;-140.58;94.77
17309;BME280;8772;42.804;23.426;2023-11-21T00:54:13;74453.88;;;-140.58;94.63
17309;BME280;8772;42.804;23.426;2023-11-21T00:56:42;74464.13;;;-140.58;94.74
17309;BME280;8772;42.804;23.426;2023-11-21T00:59:10;74457.97;;;-140.58;94.77
17309;BME280;8772;42.804;23.426;2023-11-21T01:01:37;74441.56;;;-140.58;94.74
17309;BME280;8772;42.804;23.426;2023-11-21T01:07:26;74449.78;;;-140.58;93.02
17309;BME280;8772;42.804;23.426;2023-11-21T01:09:53;74453.88;;;-140.58;92.87
17309;BME280;8772;42.804;23.426;2023-11-21T01:12:21;74455.94;;;-140.58;93.06
17309;BME280;8772;42.804;23.426;2023-11-21T01:14:51;74453.88;;;-140.58;93.09
17309;BME280;8772;42.804;23.426;2023-11-21T01:17:18;74453.88;;;-140.58;92.99
17309;BME280;8772;42.804;23.426;2023-11-21T01:19:48;74457.97;;;-140.58;92.22
17309;BME280;8772;42.804;23.426;2023-11-21T01:22:15;74466.19;;;-140.58;91.83
17309;BME280;8772;42.804;23.426;2023-11-21T01:24:42;74484.66;;;-140.58;91.45
17309;BME280;8772;42.804;23.426;2023-11-21T01:27:08;74490.81;;;-140.58;91.72
17309;BME280;8772;42.804;23.426;2023-11-21T01:29:35;74490.81;;;-140.58;91.84
17309;BME280;8772;42.804;23.426;2023-11-21T01:32:04;74490.81;;;-140.58;92.03
17309;BME280;8772;42.804;23.426;2023-11-21T01:34:33;74499.00;;;-140.58;91.81
17309;BME280;8772;42.804;23.426;2023-11-21T01:37:00;74517.47;;;-140.58;92.54
17309;BME280;8772;42.804;23.426;2023-11-21T01:39:28;74511.31;;;-140.58;93.49
17309;BME280;8772;42.804;23.426;2023-11-21T01:41:55;74523.63;;;-140.58;93.94
17309;BME280;8772;42.804;23.426;2023-11-21T01:44:23;74523.63;;;-140.58;94.40
17309;BME280;8772;42.804;23.426;2023-11-21T01:46:51;74505.16;;;-140.58;94.27
17309;BME280;8772;42.804;23.426;2023-11-21T01:49:20;74507.22;;;-140.58;94.34
17309;BME280;8772;42.804;23.426;2023-11-21T01:51:48;74517.47;;;-140.58;94.49
17309;BME280;8772;42.804;23.426;2023-11-21T01:54:16;74523.63;;;-140.58;96.42
17309;BME280;8772;42.804;23.426;2023-11-21T01:56:45;74507.22;;;-140.58;98.68
17309;BME280;8772;42.804;23.426;2023-11-21T01:59:17;74505.16;;;-140.58;99.62
17309;BME280;8772;42.804;23.426;2023-11-21T02:01:44;74519.53;;;-140.58;99.21
17309;BME280;8772;42.804;23.426;2023-11-21T02:04:12;74521.59;;;-140.58;98.49
17309;BME280;8772;42.804;23.426;2023-11-21T02:06:40;74505.16;;;-140.58;97.49
17309;BME280;8772;42.804;23.426;2023-11-21T02:09:07;74511.31;;;-140.58;96.98
17309;BME280;8772;42.804;23.426;2023-11-21T02:11:35;74507.22;;;-140.58;96.40
17309;BME280;8772;42.804;23.426;2023-11-21T02:14:04;74503.13;;;-140.58;96.13
17309;BME280;8772;42.804;23.426;2023-11-21T02:16:33;74519.53;;;-140.58;95.65
17309;BME280;8772;42.804;23.426;2023-11-21T02:19:01;74515.44;;;-140.58;95.26
17309;BME280;8772;42.804;23.426;2023-11-21T02:21:30;74515.44;;;-140.58;95.36
17309;BME280;8772;42.804;23.426;2023-11-21T02:23:59;74523.63;;;-140.58;95.11
17309;BME280;8772;42.804;23.426;2023-11-21T02:26:26;74513.38;;;-140.58;94.71
17309;BME280;8772;42.804;23.426;2023-11-21T02:28:53;74515.44;;;-140.58;94.33
17309;BME280;8772;42.804;23.426;2023-11-21T02:31:20;74517.47;;;-140.58;94.36
17309;BME280;8772;42.804;23.426;2023-11-21T02:33:48;74517.47;;;-140.58;94.34
17309;BME280;8772;42.804;23.426;2023-11-21T02:36:15;74531.84;;;-140.58;94.13
17309;BME280;8772;42.804;23.426;2023-11-21T02:38:42;74527.75;;;-140.58;94.32
17309;BME280;8772;42.804;23.426;2023-11-21T02:41:10;74535.94;;;-140.58;94.60
17309;BME280;8772;42.804;23.426;2023-11-21T02:43:37;74527.75;;;-140.58;94.76
17309;BME280;8772;42.804;23.426;2023-11-21T02:46:05;74525.69;;;-140.58;95.08
17309;BME280;8772;42.804;23.426;2023-11-21T02:48:32;74517.47;;;-140.58;94.84
17309;BME280;8772;42.804;23.426;2023-11-21T02:50:59;74523.63;;;-140.58;94.75
17309;BME280;8772;42.804;23.426;2023-11-21T02:53:26;74533.91;;;-140.58;94.50
17309;BME280;8772;42.804;23.426;2023-11-21T02:55:53;74548.25;;;-140.58;94.79
17309;BME280;8772;42.804;23.426;2023-11-21T02:58:21;74552.34;;;-140.58;94.70
17309;BME280;8772;42.804;23.426;2023-11-21T03:00:48;74548.25;;;-140.58;94.64
17309;BME280;8772;42.804;23.426;2023-11-21T03:03:15;74560.56;;;-140.58;95.07
17309;BME280;8772;42.804;23.426;2023-11-21T03:05:42;74550.31;;;-140.58;94.92
17309;BME280;8772;42.804;23.426;2023-11-21T03:08:09;74556.47;;;-140.58;95.54
17309;BME280;8772;42.804;23.426;2023-11-21T03:10:36;74558.53;;;-140.58;95.99
17309;BME280;8772;42.804;23.426;2023-11-21T03:13:03;74572.88;;;-140.58;96.08
17309;BME280;8772;42.804;23.426;2023-11-21T03:15:31;74587.25;;;-140.58;96.30
17309;BME280;8772;42.804;23.426;2023-11-21T03:17:58;74605.72;;;-140.58;98.40
17309;BME280;8772;42.804;23.426;2023-11-21T03:20:25;74601.59;;;-140.58;99.44
17309;BME280;8772;42.804;23.426;2023-11-21T03:22:52;74601.59;;;-140.58;100.00
17309;BME280;8772;42.804;23.426;2023-11-21T03:25:19;74620.06;;;-140.58;100.00
17309;BME280;8772;42.804;23.426;2023-11-21T03:27:46;74605.72;;;-140.58;100.00
17309;BME280;8772;42.804;23.426;2023-11-21T03:30:13;74589.28;;;-140.58;100.00
17309;BME280;8772;42.804;23.426;2023-11-21T03:32:41;74589.28;;;-140.58;100.00
17309;BME280;8772;42.804;23.426;2023-11-21T03:35:08;74572.88;;;-140.58;100.00
17309;BME280;8772;42.804;23.426;2023-11-21T03:37:35;74568.78;;;-140.58;100.00
17309;BME280;8772;42.804;23.426;2023-11-21T03:40:04;74572.88;;;-140.58;100.00
17309;BME280;8772;42.804;23.426;2023-11-21T03:42:33;74548.25;;;-140.58;100.00
17309;BME280;8772;42.804;23.426;2023-11-21T03:45:00;74544.16;;;-140.58;100.00
17309;BME280;8772;42.804;23.426;2023-11-21T03:47:28;74560.56;;;-140.58;100.00
17309;BME280;8772;42.804;23.426;2023-11-21T03:49:56;74550.31;;;-140.58;100.00
17309;BME280;8772;42.804;23.426;2023-11-21T03:52:23;74540.06;;;-140.58;100.00
17309;BME280;8772;42.804;23.426;2023-11-21T03:54:50;74566.72;;;-140.58;100.00
17309;BME280;8772;42.804;23.426;2023-11-21T03:57:17;74552.34;;;-140.58;100.00
17309;BME280;8772;42.804;23.426;2023-11-21T03:59:44;74556.47;;;-140.58;100.00
17309;BME280;8772;42.804;23.426;2023-11-21T04:02:11;74548.25;;;-140.58;100.00
17309;BME280;8772;42.804;23.426;2023-11-21T04:04:38;74548.25;;;-140.58;100.00
17309;BME280;8772;42.804;23.426;2023-11-21T04:07:06;74544.16;;;-140.58;100.00
17309;BME280;8772;42.804;23.426;2023-11-21T04:09:33;74546.22;;;-140.58;100.00
17309;BME280;8772;42.804;23.426;2023-11-21T04:12:01;74535.94;;;-140.58;100.00
17309;BME280;8772;42.804;23.426;2023-11-21T04:14:28;74538.00;;;-140.58;100.00
17309;BME280;8772;42.804;23.426;2023-11-21T04:16:55;74531.84;;;-140.58;100.00
17309;BME280;8772;42.804;23.426;2023-11-21T04:19:22;74535.94;;;-140.58;100.00
17309;BME280;8772;42.804;23.426;2023-11-21T04:21:49;74533.91;;;-140.58;100.00
17309;BME280;8772;42.804;23.426;2023-11-21T04:24:17;74531.84;;;-140.58;100.00
17309;BME280;8772;42.804;23.426;2023-11-21T04:26:44;74519.53;;;-140.58;100.00
17309;BME280;8772;42.804;23.426;2023-11-21T04:29:12;74503.13;;;-140.58;100.00
17309;BME280;8772;42.804;23.426;2023-11-21T04:31:39;74494.91;;;-140.58;100.00
17309;BME280;8772;42.804;23.426;2023-11-21T04:34:06;74494.91;;;-140.58;100.00
17309;BME280;8772;42.804;23.426;2023-11-21T04:36:33;74486.69;;;-140.58;99.90
17309;BME280;8772;42.804;23.426;2023-11-21T04:39:00;74486.69;;;-140.58;98.97
17309;BME280;8772;42.804;23.426;2023-11-21T04:41:29;74494.91;;;-140.58;97.63
17309;BME280;8772;42.804;23.426;2023-11-21T04:43:57;74490.81;;;-140.58;97.02
17309;BME280;8772;42.804;23.426;2023-11-21T04:46:24;74494.91;;;-140.58;96.63
17309;BME280;8772;42.804;23.426;2023-11-21T04:48:51;74494.91;;;-140.58;96.47
17309;BME280;8772;42.804;23.426;2023-11-21T04:51:18;74513.38;;;-140.58;96.43
17309;BME280;8772;42.804;23.426;2023-11-21T04:53:45;74515.44;;;-140.58;96.61
17309;BME280;8772;42.804;23.426;2023-11-21T04:56:11;74511.31;;;-140.58;96.56
17309;BME280;8772;42.804;23.426;2023-11-21T04:58:40;74515.44;;;-140.58;96.15
17309;BME280;8772;42.804;23.426;2023-11-21T05:01:07;74511.31;;;-140.58;95.99
17309;BME280;8772;42.804;23.426;2023-11-21T05:03:34;74519.53;;;-140.58;95.51
17309;BME280;8772;42.804;23.426;2023-11-21T05:06:01;74517.47;;;-140.58;95.31
17309;BME280;8772;42.804;23.426;2023-11-21T05:08:28;74519.53;;;-140.58;95.30
17309;BME280;8772;42.804;23.426;2023-11-21T05:10:56;74527.75;;;-140.58;95.19
17309;BME280;8772;42.804;23.426;2023-11-21T05:13:22;74527.75;;;-140.58;94.58
17309;BME280;8772;42.804;23.426;2023-11-21T05:15:54;74521.59;;;-140.58;94.69
17309;BME280;8772;42.804;23.426;2023-11-21T05:18:21;74548.25;;;-140.58;96.21
17309;BME280;8772;42.804;23.426;2023-11-21T05:20:48;74533.91;;;-140.58;97.06
17309;BME280;8772;42.804;23.426;2023-11-21T05:23:15;74529.78;;;-140.58;97.23
17309;BME280;8772;42.804;23.426;2023-11-21T05:25:42;74523.63;;;-140.58;97.20
17309;BME280;8772;42.804;23.426;2023-11-21T05:28:09;74531.84;;;-140.58;97.71
17309;BME280;8772;42.804;23.426;2023-11-21T05:30:36;74533.91;;;-140.58;98.47
17309;BME280;8772;42.804;23.426;2023-11-21T05:33:05;74531.84;;;-140.58;99.81
17309;BME280;8772;42.804;23.426;2023-11-21T05:35:32;74521.59;;;-140.58;100.00
17309;BME280;8772;42.804;23.426;2023-11-21T05:37:59;74523.63;;;-140.58;100.00
17309;BME280;8772;42.804;23.426;2023-11-21T05:40:26;74511.31;;;-140.58;100.00
17309;BME280;8772;42.804;23.426;2023-11-21T05:42:55;74513.38;;;-140.58;100.00
17309;BME280;8772;42.804;23.426;2023-11-21T05:45:22;74515.44;;;-140.58;100.00
17309;BME280;8772;42.804;23.426;2023-11-21T05:47:49;74517.47;;;-140.58;100.00
17309;BME280;8772;42.804;23.426;2023-11-21T05:50:17;74511.31;;;-140.58;100.00
17309;BME280;8772;42.804;23.426;2023-11-21T05:52:45;74499.00;;;-140.58;100.00
17309;BME280;8772;42.804;23.426;2023-11-21T05:55:12;74486.69;;;-140.58;100.00
17309;BME280;8772;42.804;23.426;2023-11-21T05:57:40;74478.50;;;-140.58;100.00
17309;BME280;8772;42.804;23.426;2023-11-21T06:00:09;74478.50;;;-140.58;100.00
17309;BME280;8772;42.804;23.426;2023-11-21T06:02:41;74472.34;;;-140.58;100.00
17309;BME280;8772;42.804;23.426;2023-11-21T06:05:08;74466.19;;;-140.58;100.00
17309;BME280;8772;42.804;23.426;2023-11-21T06:07:37;74466.19;;;-140.58;99.74
17309;BME280;8772;42.804;23.426;2023-11-21T06:10:07;74464.13;;;-140.58;99.19
17309;BME280;8772;42.804;23.426;2023-11-21T06:12:36;74460.03;;;-140.58;98.77
17309;BME280;8772;42.804;23.426;2023-11-21T06:15:04;74449.78;;;-140.58;98.65
17309;BME280;8772;42.804;23.426;2023-11-21T06:17:34;74441.56;;;-140.58;98.46
17309;BME280;8772;42.804;23.426;2023-11-21T06:20:01;74457.97;;;-140.58;98.43
17309;BME280;8772;42.804;23.426;2023-11-21T06:22:34;74447.72;;;-140.58;99.06
17309;BME280;8772;42.804;23.426;2023-11-21T06:25:03;74457.97;;;-140.58;99.85
17309;BME280;8772;42.804;23.426;2023-11-21T06:27:31;74441.56;;;-140.58;100.00
17309;BME280;8772;42.804;23.426;2023-11-21T06:29:58;74441.56;;;-140.58;100.00
17309;BME280;8772;42.804;23.426;2023-11-21T06:32:25;74441.56;;;-140.58;100.00
17309;BME280;8772;42.804;23.426;2023-11-21T06:34:52;74425.16;;;-140.58;100.00
17309;BME280;8772;42.804;23.426;2023-11-21T06:37:19;74423.09;;;-140.58;100.00
17309;BME280;8772;42.804;23.426;2023-11-21T06:39:48;74402.56;;;-140.58;100.00
17309;BME280;8772;42.804;23.426;2023-11-21T06:42:16;74400.53;;;-140.58;100.00
17309;BME280;8772;42.804;23.426;2023-11-21T06:44:44;74398.47;;;-140.58;100.00
17309;BME280;8772;42.804;23.426;2023-11-21T06:47:11;74392.31;;;-140.58;100.00
17309;BME280;8772;42.804;23.426;2023-11-21T06:49:38;74396.41;;;-140.58;100.00
17309;BME280;8772;42.804;23.426;2023-11-21T06:52:05;74388.22;;;-140.58;100.00
17309;BME280;8772;42.804;23.426;2023-11-21T06:54:31;74384.13;;;-140.58;100.00
17309;BME280;8772;42.804;23.426;2023-11-21T06:56:58;74371.81;;;-140.58;100.00
17309;BME280;8772;42.804;23.426;2023-11-21T06:59:28;74377.94;;;-140.58;100.00
17309;BME280;8772;42.804;23.426;2023-11-21T07:01:55;74361.53;;;-140.58;99.78
17309;BME280;8772;42.804;23.426;2023-11-21T07:04:22;74369.75;;;-140.58;99.73
17309;BME280;8772;42.804;23.426;2023-11-21T07:06:50;74363.59;;;-140.58;99.58
17309;BME280;8772;42.804;23.426;2023-11-21T07:09:17;74353.34;;;-140.58;99.23
17309;BME280;8772;42.804;23.426;2023-11-21T07:11:47;74355.38;;;-140.58;98.59
17309;BME280;8772;42.804;23.426;2023-11-21T07:14:14;74351.28;;;-140.58;98.65
17309;BME280;8772;42.804;23.426;2023-11-21T07:16:43;74351.28;;;-140.58;98.78
17309;BME280;8772;42.804;23.426;2023-11-21T07:19:10;74343.06;;;-140.58;98.76
17309;BME280;8772;42.804;23.426;2023-11-21T07:21:38;74343.06;;;-140.58;98.62
17309;BME280;8772;42.804;23.426;2023-11-21T07:24:06;74332.81;;;-140.58;98.42
17309;BME280;8772;42.804;23.426;2023-11-21T07:26:34;74324.59;;;-140.58;98.09
17309;BME280;8772;42.804;23.426;2023-11-21T07:29:02;74322.56;;;-140.58;97.92
17309;BME280;8772;42.804;23.426;2023-11-21T07:31:29;74314.34;;;-140.58;97.79
17309;BME280;8772;42.804;23.426;2023-11-21T07:33:58;74310.25;;;-140.58;97.41
17309;BME280;8772;42.804;23.426;2023-11-21T07:36:25;74302.03;;;-140.58;96.97
17309;BME280;8772;42.804;23.426;2023-11-21T07:38:52;74306.16;;;-140.58;97.06
17309;BME280;8772;42.804;23.426;2023-11-21T07:41:19;74293.84;;;-140.58;97.40
17309;BME280;8772;42.804;23.426;2023-11-21T07:43:46;74285.63;;;-140.58;97.42
17309;BME280;8772;42.804;23.426;2023-11-21T07:46:13;74275.38;;;-140.58;97.29
17309;BME280;8772;42.804;23.426;2023-11-21T07:48:40;74265.09;;;-140.58;97.05
17309;BME280;8772;42.804;23.426;2023-11-21T07:51:09;74263.06;;;-140.58;96.98
17309;BME280;8772;42.804;23.426;2023-11-21T07:53:38;74261.00;;;-140.58;96.69
17309;BME280;8772;42.804;23.426;2023-11-21T07:56:07;74256.91;;;-140.58;96.46
17309;BME280;8772;42.804;23.426;2023-11-21T07:58:34;74240.50;;;-140.58;96.11
17309;BME280;8772;42.804;23.426;2023-11-21T08:01:01;74236.38;;;-140.58;96.21
17309;BME280;8772;42.804;23.426;2023-11-21T08:03:28;74219.97;;;-140.58;96.01
17309;BME280;8772;42.804;23.426;2023-11-21T08:05:56;74213.81;;;-140.58;95.76
17309;BME280;8772;42.804;23.426;2023-11-21T08:08:24;74215.88;;;-140.58;95.74
17309;BME280;8772;42.804;23.426;2023-11-21T08:10:51;74215.88;;;-140.58;96.29
17309;BME280;8772;42.804;23.426;2023-11-21T08:13:22;74203.56;;;-140.58;96.63
17309;BME280;8772;42.804;23.426;2023-11-21T08:15:49;74201.50;;;-140.58;97.57
17309;BME280;8772;42.804;23.426;2023-11-21T08:18:16;74183.03;;;-140.58;96.93
17309;BME280;8772;42.804;23.426;2023-11-21T08:20:43;74174.84;;;-140.58;96.65
17309;BME280;8772;42.804;23.426;2023-11-21T08:23:14;74178.94;;;-140.58;95.63
17309;BME280;8772;42.804;23.426;2023-11-21T08:25:43;74170.72;;;-140.58;95.55
17309;BME280;8772;42.804;23.426;2023-11-21T08:28:11;74168.69;;;-140.58;95.60
17309;BME280;8772;42.804;23.426;2023-11-21T08:30:40;74152.28;;;-140.58;95.51
17309;BME280;8772;42.804;23.426;2023-11-21T08:33:07;74146.09;;;-140.58;95.66
17309;BME280;8772;42.804;23.426;2023-11-21T08:35:35;74129.69;;;-140.58;95.73
17309;BME280;8772;42.804;23.426;2023-11-21T08:38:02;74125.59;;;-140.58;95.98
17309;BME280;8772;42.804;23.426;2023-11-21T08:40:29;74113.28;;;-140.58;95.98
17309;BME280;8772;42.804;23.426;2023-11-21T08:42:58;74096.88;;;-140.58;96.39
17309;BME280;8772;42.804;23.426;2023-11-21T08:45:25;74082.50;;;-140.58;97.09
17309;BME280;8772;42.804;23.426;2023-11-21T08:47:52;74068.16;;;-140.58;96.36
17309;BME280;8772;42.804;23.426;2023-11-21T08:50:19;74055.84;;;-140.58;95.99
17309;BME280;8772;42.804;23.426;2023-11-21T08:52:46;74035.31;;;-140.58;95.23
17309;BME280;8772;42.804;23.426;2023-11-21T08:55:13;74027.13;;;-140.58;95.19
17309;BME280;8772;42.804;23.426;2023-11-21T08:57:42;74012.75;;;-140.58;91.56
17309;BME280;8772;42.804;23.426;2023-11-21T09:00:11;73998.41;;;-140.58;91.28
17309;BME280;8772;42.804;23.426;2023-11-21T09:02:39;73986.09;;;-140.58;92.23
17309;BME280;8772;42.804;23.426;2023-11-21T09:05:07;73965.56;;;-140.58;92.58
17309;BME280;8772;42.804;23.426;2023-11-21T09:07:34;73938.91;;;-140.58;92.42
17309;BME280;8772;42.804;23.426;2023-11-21T09:10:02;73924.53;;;-140.58;92.74
17309;BME280;8772;42.804;23.426;2023-11-21T09:12:29;73908.13;;;-140.58;92.21
17309;BME280;8772;42.804;23.426;2023-11-21T09:14:58;73889.66;;;-140.58;89.99
17309;BME280;8772;42.804;23.426;2023-11-21T09:17:26;73883.50;;;-140.58;90.22
17309;BME280;8772;42.804;23.426;2023-11-21T09:19:53;73871.19;;;-140.58;90.27
17309;BME280;8772;42.804;23.426;2023-11-21T09:22:20;73854.78;;;-140.58;90.52
17309;BME280;8772;42.804;23.426;2023-11-21T09:24:47;73826.06;;;-140.58;89.66
17309;BME280;8772;42.804;23.426;2023-11-21T09:27:14;73811.72;;;-140.58;88.97
17309;BME280;8772;42.804;23.426;2023-11-21T09:29:40;73793.25;;;-140.58;88.59
17309;BME280;8772;42.804;23.426;2023-11-21T09:32:08;73780.94;;;-140.58;87.01
17309;BME280;8772;42.804;23.426;2023-11-21T09:34:39;73768.63;;;-140.58;87.74
17309;BME280;8772;42.804;23.426;2023-11-21T09:37:07;73752.22;;;-140.58;87.94
17309;BME280;8772;42.804;23.426;2023-11-21T09:39:35;73735.81;;;-140.58;87.76
17309;BME280;8772;42.804;23.426;2023-11-21T09:42:10;73721.44;;;-140.58;87.55
17309;BME280;8772;42.804;23.426;2023-11-21T09:44:45;73723.50;;;-140.58;85.65
17309;BME280;8772;42.804;23.426;2023-11-21T09:47:15;73705.03;;;-140.58;86.71
17309;BME280;8772;42.804;23.426;2023-11-21T09:49:47;73688.63;;;-140.58;86.49
17309;BME280;8772;42.804;23.426;2023-11-21T09:52:19;73682.47;;;-140.58;86.07
17309;BME280;8772;42.804;23.426;2023-11-21T09:54:48;73657.84;;;-140.58;85.75
17309;BME280;8772;42.804;23.426;2023-11-21T09:57:16;73637.34;;;-140.58;83.79
17309;BME280;8772;42.804;23.426;2023-11-21T09:59:45;73629.13;;;-140.58;83.85
17309;BME280;8772;42.804;23.426;2023-11-21T10:02:14;73622.97;;;-140.58;82.89
17309;BME280;8772;42.804;23.426;2023-11-21T10:04:45;73610.69;;;-140.58;82.28
17309;BME280;8772;42.804;23.426;2023-11-21T10:07:13;73596.31;;;-140.58;81.87
17309;BME280;8772;42.804;23.426;2023-11-21T10:09:43;73588.09;;;-140.58;82.10
17309;BME280;8772;42.804;23.426;2023-11-21T10:12:11;73575.81;;;-140.58;80.30
17309;BME280;8772;42.804;23.426;2023-11-21T10:14:41;73559.38;;;-140.58;79.65
17309;BME280;8772;42.804;23.426;2023-11-21T10:17:10;73536.81;;;-140.58;79.22
17309;BME280;8772;42.804;23.426;2023-11-21T10:19:39;73530.66;;;-140.58;78.05
17309;BME280;8772;42.804;23.426;2023-11-21T10:22:07;73520.41;;;-140.58;76.74
17309;BME280;8772;42.804;23.426;2023-11-21T10:24:34;73506.06;;;-140.58;76.37
17309;BME280;8772;42.804;23.426;2023-11-21T10:27:03;73489.66;;;-140.58;76.00
17309;BME280;8772;42.804;23.426;2023-11-21T10:29:30;73485.53;;;-140.58;76.15
17309;BME280;8772;42.804;23.426;2023-11-21T10:32:02;73469.13;;;-140.58;75.73
17309;BME280;8772;42.804;23.426;2023-11-21T10:34:29;73456.81;;;-140.58;74.97
17309;BME280;8772;42.804;23.426;2023-11-21T10:36:56;73454.78;;;-140.58;74.59
17309;BME280;8772;42.804;23.426;2023-11-21T10:39:25;73438.38;;;-140.58;72.90
17309;BME280;8772;42.804;23.426;2023-11-21T10:41:56;73428.09;;;-140.58;72.15
17309;BME280;8772;42.804;23.426;2023-11-21T10:44:23;73417.84;;;-140.58;70.58
17309;BME280;8772;42.804;23.426;2023-11-21T10:46:51;73419.91;;;-140.58;69.22
17309;BME280;8772;42.804;23.426;2023-11-21T10:49:21;73411.69;;;-140.58;66.62
17309;BME280;8772;42.804;23.426;2023-11-21T10:51:50;73399.41;;;-140.58;68.52
17309;BME280;8772;42.804;23.426;2023-11-21T10:54:19;73382.97;;;-140.58;70.14
17309;BME280;8772;42.804;23.426;2023-11-21T10:56:49;73364.53;;;-140.58;70.14
17309;BME280;8772;42.804;23.426;2023-11-21T10:59:17;73358.38;;;-140.58;69.65
17309;BME280;8772;42.804;23.426;2023-11-21T11:01:45;73350.16;;;-140.58;70.25
17309;BME280;8772;42.804;23.426;2023-11-21T11:04:14;73329.66;;;-140.58;68.75
17309;BME280;8772;42.804;23.426;2023-11-21T11:06:43;73327.59;;;-140.58;67.90
17309;BME280;8772;42.804;23.426;2023-11-21T11:09:13;73319.41;;;-140.58;68.28
17309;BME280;8772;42.804;23.426;2023-11-21T11:11:42;73309.13;;;-140.58;68.57
17309;BME280;8772;42.804;23.426;2023-11-21T11:14:12;73300.94;;;-140.58;67.74
17309;BME280;8772;42.804;23.426;2023-11-21T11:16:40;73288.63;;;-140.58;67.75
17309;BME280;8772;42.804;23.426;2023-11-21T11:19:08;73300.94;;;-140.58;63.17
17309;BME280;8772;42.804;23.426;2023-11-21T11:21:46;73298.88;;;-140.58;63.94
17309;BME280;8772;42.804;23.426;2023-11-21T11:24:42;73284.53;;;-140.58;65.60
17309;BME280;8772;42.804;23.426;2023-11-21T11:27:21;73280.44;;;-140.58;66.48
17309;BME280;8772;42.804;23.426;2023-11-21T11:30:06;73268.13;;;-140.58;66.89
17309;BME280;8772;42.804;23.426;2023-11-21T11:32:43;73255.81;;;-140.58;66.08
17309;BME280;8772;42.804;23.426;2023-11-21T11:35:20;73255.81;;;-140.58;66.84
17309;BME280;8772;42.804;23.426;2023-11-21T11:37:51;73249.66;;;-140.58;67.15
17309;BME280;8772;42.804;23.426;2023-11-21T11:40:20;73239.41;;;-140.58;67.35
17309;BME280;8772;42.804;23.426;2023-11-21T11:42:56;73235.31;;;-140.58;66.87
17309;BME280;8772;42.804;23.426;2023-11-21T11:45:32;73237.34;;;-140.58;66.61
17309;BME280;8772;42.804;23.426;2023-11-21T11:48:01;73239.41;;;-140.58;66.53
17309;BME280;8772;42.804;23.426;2023-11-21T11:50:29;73247.59;;;-140.58;65.43
17309;BME280;8772;42.804;23.426;2023-11-21T11:53:13;73268.13;;;-140.58;65.17
17309;BME280;8772;42.804;23.426;2023-11-21T11:55:40;73278.38;;;-140.58;65.61
17309;BME280;8772;42.804;23.426;2023-11-21T11:58:08;73268.13;;;-140.58;64.29
17309;BME280;8772;42.804;23.426;2023-11-21T12:00:36;73272.22;;;-140.58;64.53
17309;BME280;8772;42.804;23.426;2023-11-21T12:03:07;73284.53;;;-140.58;65.22
17309;BME280;8772;42.804;23.426;2023-11-21T12:05:34;73292.72;;;-140.58;65.64
17309;BME280;8772;42.804;23.426;2023-11-21T12:08:05;73292.72;;;-140.58;66.12
17309;BME280;8772;42.804;23.426;2023-11-21T12:10:34;73296.84;;;-140.58;66.67
17309;BME280;8772;42.804;23.426;2023-11-21T12:13:02;73317.34;;;-140.58;67.47
17309;BME280;8772;42.804;23.426;2023-11-21T12:15:31;73329.66;;;-140.58;68.68
17309;BME280;8772;42.804;23.426;2023-11-21T12:17:59;73329.66;;;-140.58;69.03
17309;BME280;8772;42.804;23.426;2023-11-21T12:20:27;73321.44;;;-140.58;68.80
17309;BME280;8772;42.804;23.426;2023-11-21T12:22:55;73331.69;;;-140.58;70.09
17309;BME280;8772;42.804;23.426;2023-11-21T12:25:25;73331.69;;;-140.58;71.48
17309;BME280;8772;42.804;23.426;2023-11-21T12:27:55;73341.97;;;-140.58;71.03
17309;BME280;8772;42.804;23.426;2023-11-21T12:30:23;73352.22;;;-140.58;73.17
17309;BME280;8772;42.804;23.426;2023-11-21T12:32:54;73350.16;;;-140.58;74.78
17309;BME280;8772;42.804;23.426;2023-11-21T12:35:24;73352.22;;;-140.58;75.96
17309;BME280;8772;42.804;23.426;2023-11-21T12:37:52;73348.13;;;-140.58;76.92
17309;BME280;8772;42.804;23.426;2023-11-21T12:40:23;73360.41;;;-140.58;78.30
17309;BME280;8772;42.804;23.426;2023-11-21T12:42:52;73354.28;;;-140.58;79.79
17309;BME280;8772;42.804;23.426;2023-11-21T12:45:21;73366.56;;;-140.58;82.13